Archival Weather

Chicago O'Hare International

Chicago, Illinois (KORD)

Report from: Saturday, March 5, 2022 12:51 AM CST
Current time: Saturday, February 4, 2023 10:24 PM CST

Current weather
Weather history
Weather forecast

Temperature5.0°C (41.0°F)
Wind chill2.1°C (35.8°F)
Dew point-5.6°C (21.9°F)
Winds 7 kts (3.6 m/s, 8.1 mph) Southeast (130°)
Visibility10 mi. (16.1 km)
Clouds Ceiling: Overcast 15,000 ft. (4,572 m)
Altimeter30.08 in.Hg (1019 mB)
Relative humidity46 %
Density altitude-1,325 ft. (-404 m)
Sea-level pressure101.9 kPa (1019 mB, 30.09 in.Hg)
Remarks Automated weather observing station with precipitation discriminator
Flight conditions Visual Meteorological Conditions
Raw dataKORD 050651Z 13007KT 10SM OVC150 05/M06 A3008 RMK AO2 SLP189 T00501056
An unhandled exception has occurred. See browser dev tools for details. Reload 🗙